Time;durP1;ratioP1;P1;durP2;ratioP2;P2;SDS_P1;SDS_P2;PMS_P1;PMS_P2;Temp;Humidity;BMP_temperature;BMP_pressure;BME280_temperature;BME280_humidity;BME280_pressure;Samples;Min_cycle;Max_cycle;Signal;HPM_P1;HPM_P2
2023/02/21 02:15:15;;;;;;;24.00;10.05;;;10.70;99.90;;;;;;4653080;30;20196;-76
2023/02/21 02:18:05;;;;;;;25.98;10.20;;;10.70;99.90;;;;;;4651539;30;20239;-76
2023/02/21 02:20:56;;;;;;;28.15;11.20;;;10.70;99.90;;;;;;4652513;30;20197;-76
2023/02/21 02:23:43;;;;;;;25.25;9.88;;;10.70;99.90;;;;;;4650929;30;20652;-79
2023/02/21 02:26:43;;;;;;;21.83;9.23;;;10.70;99.90;;;;;;4647484;30;20197;-76
2023/02/21 02:29:35;;;;;;;25.50;9.52;;;10.70;99.90;;;;;;4628466;30;20237;-78
2023/02/21 02:32:37;;;;;;;22.48;9.75;;;10.70;99.90;;;;;;4639296;30;20209;-76
2023/02/21 02:35:43;;;;;;;22.80;9.88;;;10.70;99.90;;;;;;4629014;30;20209;-76
2023/02/21 02:38:35;;;;;;;24.38;9.90;;;10.70;99.90;;;;;;4645956;30;20241;-77
2023/02/21 02:41:11;;;;;;;23.85;10.48;;;10.80;99.90;;;;;;4650564;30;20330;-76
2023/02/21 02:43:54;;;;;;;20.75;9.60;;;10.80;99.90;;;;;;4639307;30;20195;-76
2023/02/21 02:46:33;;;;;;;31.10;11.65;;;10.80;99.90;;;;;;4642371;30;20655;-77
2023/02/21 02:49:23;;;;;;;23.55;10.73;;;10.80;99.90;;;;;;4628947;30;20193;-76
2023/02/21 02:51:51;;;;;;;24.33;10.60;;;10.70;99.90;;;;;;4629444;30;20205;-77
2023/02/21 02:54:20;;;;;;;24.63;10.38;;;10.70;99.90;;;;;;4652170;30;20189;-76
2023/02/21 02:56:46;;;;;;;24.75;10.82;;;10.70;99.90;;;;;;4651158;30;20253;-79
2023/02/21 02:59:24;;;;;;;27.35;11.52;;;10.70;99.90;;;;;;4636196;30;20197;-75
2023/02/21 03:02:22;;;;;;;26.40;10.95;;;10.80;99.90;;;;;;4650844;30;20201;-76
2023/02/21 03:05:18;;;;;;;22.95;11.07;;;10.70;99.90;;;;;;4642255;30;20193;-77
2023/02/21 03:07:53;;;;;;;24.77;11.38;;;10.70;99.90;;;;;;4651738;30;20224;-77
2023/02/21 03:10:43;;;;;;;27.30;11.95;;;10.70;99.90;;;;;;4638636;30;20200;-79
2023/02/21 03:13:27;;;;;;;24.55;11.23;;;10.70;99.90;;;;;;4636421;30;20197;-78
2023/02/21 03:16:01;;;;;;;25.60;11.85;;;10.70;99.90;;;;;;4632264;30;20190;-75
2023/02/21 03:18:35;;;;;;;26.40;12.00;;;10.70;99.90;;;;;;4654851;30;20273;-79
2023/02/21 03:21:05;;;;;;;26.38;11.88;;;10.70;99.90;;;;;;4654693;30;20196;-77
2023/02/21 03:23:33;;;;;;;29.35;13.02;;;10.70;99.90;;;;;;4640578;30;20217;-76
2023/02/21 03:26:03;;;;;;;24.38;11.60;;;10.70;99.90;;;;;;4654740;30;20246;-79
2023/02/21 03:28:30;;;;;;;26.85;11.90;;;10.70;99.90;;;;;;4640891;30;20276;-76
2023/02/21 03:30:59;;;;;;;24.63;11.68;;;10.70;99.90;;;;;;4639733;30;22007;-78
2023/02/21 03:33:25;;;;;;;24.42;11.57;;;10.70;99.90;;;;;;4643567;30;20197;-76
2023/02/21 03:35:52;;;;;;;24.42;11.07;;;10.60;99.90;;;;;;4639844;30;20207;-80
2023/02/21 03:38:18;;;;;;;26.70;12.35;;;10.70;99.90;;;;;;4649965;30;20225;-76
2023/02/21 03:40:44;;;;;;;25.30;11.30;;;10.60;99.90;;;;;;4622040;30;20233;-78
2023/02/21 03:43:10;;;;;;;32.75;12.82;;;10.60;99.90;;;;;;4649680;30;21026;-75
2023/02/21 03:45:44;;;;;;;25.35;11.40;;;10.60;99.90;;;;;;4640156;30;20202;-78
2023/02/21 03:48:16;;;;;;;23.17;12.02;;;10.60;99.90;;;;;;4641810;30;20208;-75
2023/02/21 03:50:43;;;;;;;26.35;11.80;;;10.60;99.90;;;;;;4640543;30;20231;-76
2023/02/21 03:53:10;;;;;;;28.75;11.60;;;10.60;99.90;;;;;;4638363;30;20633;-79
2023/02/21 03:55:37;;;;;;;28.33;10.63;;;10.60;99.90;;;;;;4655150;30;20210;-77
2023/02/21 03:58:08;;;;;;;24.17;11.00;;;10.60;99.90;;;;;;4640314;30;20315;-77
2023/02/21 04:00:36;;;;;;;27.25;11.65;;;10.60;99.90;;;;;;4643730;30;20202;-75
2023/02/21 04:03:02;;;;;;;33.00;11.82;;;10.60;99.90;;;;;;4648531;30;20200;-76
2023/02/21 04:05:39;;;;;;;28.27;11.63;;;10.60;99.90;;;;;;4640128;30;20223;-75
2023/02/21 04:08:07;;;;;;;23.95;10.63;;;10.60;99.90;;;;;;4639761;30;20197;-80
2023/02/21 04:10:33;;;;;;;24.75;11.45;;;10.60;99.90;;;;;;4624695;30;20196;-75
2023/02/21 04:12:59;;;;;;;22.45;10.57;;;10.60;99.90;;;;;;4638190;30;22967;-79
2023/02/21 04:15:25;;;;;;;27.52;11.48;;;10.60;99.90;;;;;;4634650;30;20212;-76
2023/02/21 04:17:51;;;;;;;24.92;11.25;;;10.60;99.90;;;;;;4650486;30;20617;-78
2023/02/21 04:20:17;;;;;;;21.73;11.18;;;10.60;99.90;;;;;;4631784;30;20205;-80
2023/02/21 04:22:53;;;;;;;20.60;10.88;;;10.60;99.90;;;;;;4640361;30;20240;-76
2023/02/21 04:25:19;;;;;;;25.25;11.38;;;10.60;99.90;;;;;;4646546;30;20206;-79
2023/02/21 04:27:49;;;;;;;26.42;11.63;;;10.60;99.90;;;;;;4619699;30;20244;-80
2023/02/21 04:30:15;;;;;;;20.30;10.18;;;10.60;99.90;;;;;;4654831;30;20206;-77
2023/02/21 04:32:41;;;;;;;23.50;10.85;;;10.60;99.90;;;;;;4631502;30;20655;-78
2023/02/21 04:35:11;;;;;;;24.15;11.27;;;10.60;99.90;;;;;;4631953;30;20202;-77
2023/02/21 04:37:37;;;;;;;23.35;11.75;;;10.60;99.90;;;;;;4631093;30;20594;-77
2023/02/21 04:40:03;;;;;;;28.40;12.23;;;10.60;99.90;;;;;;4648500;30;20380;-77
2023/02/21 04:42:32;;;;;;;23.90;11.65;;;10.60;99.90;;;;;;4651703;30;20197;-78
2023/02/21 04:44:58;;;;;;;27.40;12.68;;;10.60;99.90;;;;;;4638650;30;20239;-81
2023/02/21 04:47:24;;;;;;;24.25;13.02;;;10.60;99.90;;;;;;4627303;30;20209;-76
2023/02/21 04:49:51;;;;;;;27.60;13.85;;;10.60;99.90;;;;;;4638804;30;20205;-76
2023/02/21 04:52:19;;;;;;;30.98;14.00;;;10.60;99.90;;;;;;4652194;30;20255;-78
2023/02/21 04:54:46;;;;;;;28.23;14.80;;;10.60;99.90;;;;;;4652598;30;20639;-77
2023/02/21 04:57:12;;;;;;;24.00;13.60;;;10.60;99.90;;;;;;4654600;30;20240;-75
2023/02/21 04:59:38;;;;;;;33.85;15.32;;;10.60;99.90;;;;;;4653840;30;20225;-78
2023/02/21 05:02:05;;;;;;;29.25;15.30;;;10.50;99.90;;;;;;4654146;30;20332;-75
2023/02/21 05:04:31;;;;;;;30.08;15.02;;;10.50;99.90;;;;;;4653346;30;20658;-77
2023/02/21 05:06:58;;;;;;;28.05;14.77;;;10.50;99.90;;;;;;4654728;30;20217;-76
2023/02/21 05:09:24;;;;;;;32.65;15.43;;;10.50;99.90;;;;;;4653903;30;20197;-75
2023/02/21 05:11:50;;;;;;;29.30;14.63;;;10.50;99.90;;;;;;4610997;30;20682;-76
2023/02/21 05:14:17;;;;;;;31.52;15.52;;;10.50;99.90;;;;;;4628218;30;20206;-76
2023/02/21 05:16:43;;;;;;;26.10;15.00;;;10.50;99.90;;;;;;4641908;30;20237;-76
2023/02/21 05:19:09;;;;;;;34.00;16.33;;;10.50;99.90;;;;;;4653007;30;20207;-79
2023/02/21 05:21:37;;;;;;;33.10;15.68;;;10.50;99.90;;;;;;4653528;30;20276;-77
2023/02/21 05:24:07;;;;;;;31.27;16.10;;;10.50;99.90;;;;;;4651973;30;20237;-78
2023/02/21 05:26:35;;;;;;;28.55;15.55;;;10.50;99.90;;;;;;4653160;30;20228;-77
2023/02/21 05:29:03;;;;;;;33.60;16.13;;;10.50;99.90;;;;;;4652398;30;20282;-79
2023/02/21 05:31:29;;;;;;;28.08;15.80;;;10.50;99.90;;;;;;4653085;30;20204;-76
2023/02/21 05:33:56;;;;;;;33.17;16.73;;;10.50;99.90;;;;;;4652598;30;20296;-79
2023/02/21 05:36:24;;;;;;;32.30;16.67;;;10.50;99.90;;;;;;4652145;30;20227;-76
2023/02/21 05:38:53;;;;;;;32.30;17.08;;;10.50;99.90;;;;;;4629254;30;20202;-78
2023/02/21 05:41:18;;;;;;;36.90;17.52;;;10.50;99.90;;;;;;4651969;30;20738;-77
2023/02/21 05:43:46;;;;;;;31.08;17.30;;;10.50;99.90;;;;;;4652361;30;20201;-76
2023/02/21 05:46:18;;;;;;;32.78;16.45;;;10.50;99.90;;;;;;4652634;30;20201;-79
2023/02/21 05:48:44;;;;;;;33.65;17.27;;;10.50;99.90;;;;;;4652042;30;20202;-81
2023/02/21 05:51:10;;;;;;;29.50;16.55;;;10.40;99.90;;;;;;4651898;30;20193;-76
2023/02/21 05:53:36;;;;;;;36.63;17.75;;;10.50;99.90;;;;;;4639318;30;20204;-76
2023/02/21 05:56:01;;;;;;;34.72;18.58;;;10.50;99.90;;;;;;4652195;30;20201;-77
2023/02/21 05:58:27;;;;;;;29.48;17.05;;;10.40;99.90;;;;;;4651399;30;20304;-76
2023/02/21 06:00:53;;;;;;;34.90;17.55;;;10.50;99.90;;;;;;4628063;30;20245;-79
2023/02/21 06:03:19;;;;;;;29.48;16.15;;;10.50;99.90;;;;;;4652347;30;20197;-79
2023/02/21 06:05:44;;;;;;;32.40;16.33;;;10.40;99.90;;;;;;4652688;30;20205;-77
2023/02/21 06:08:10;;;;;;;32.65;16.92;;;10.40;99.90;;;;;;4638165;30;20244;-77
2023/02/21 06:10:36;;;;;;;36.13;17.13;;;10.40;99.90;;;;;;4638151;30;20217;-76
2023/02/21 06:13:02;;;;;;;30.55;16.70;;;10.40;99.90;;;;;;4652029;30;20201;-78
2023/02/21 06:15:27;;;;;;;29.88;17.40;;;10.40;99.90;;;;;;4653619;30;20205;-79
2023/02/21 06:17:53;;;;;;;35.28;17.40;;;10.40;99.90;;;;;;4653100;30;20225;-82
2023/02/21 06:20:19;;;;;;;31.55;16.90;;;10.40;99.90;;;;;;4639183;30;20210;-77
2023/02/21 06:22:46;;;;;;;33.97;17.08;;;10.40;99.90;;;;;;4651682;30;20205;-76
2023/02/21 06:25:11;;;;;;;43.88;17.30;;;10.40;99.90;;;;;;4629374;30;22825;-75
2023/02/21 06:27:37;;;;;;;31.02;16.50;;;10.40;99.90;;;;;;4638632;30;20253;-80
2023/02/21 06:30:05;;;;;;;35.53;16.60;;;10.40;99.90;;;;;;4651399;30;20210;-75
2023/02/21 06:32:30;;;;;;;32.17;17.33;;;10.40;99.90;;;;;;4637658;30;20216;-76
2023/02/21 06:34:56;;;;;;;29.83;16.63;;;10.40;99.90;;;;;;4653089;30;20201;-77
2023/02/21 06:37:22;;;;;;;31.58;16.75;;;10.40;99.90;;;;;;4639203;30;20319;-75
2023/02/21 06:39:48;;;;;;;33.38;17.63;;;10.40;99.90;;;;;;4652546;30;20285;-76
2023/02/21 06:42:15;;;;;;;39.78;17.50;;;10.40;99.90;;;;;;4651748;30;20205;-76
2023/02/21 06:44:45;;;;;;;35.90;16.15;;;10.40;99.90;;;;;;4653001;30;20192;-76
2023/02/21 06:47:11;;;;;;;31.38;16.70;;;10.40;99.90;;;;;;4633473;30;20287;-78
2023/02/21 06:49:37;;;;;;;32.90;16.73;;;10.40;99.90;;;;;;4654616;30;20275;-80
2023/02/21 06:52:03;;;;;;;36.38;17.75;;;10.30;99.90;;;;;;4654000;30;21002;-76
2023/02/21 06:54:29;;;;;;;39.67;18.08;;;10.40;99.90;;;;;;4653379;30;20196;-79
2023/02/21 06:56:55;;;;;;;35.90;18.10;;;10.40;99.90;;;;;;4652509;30;22660;-74
2023/02/21 06:59:21;;;;;;;38.13;18.50;;;10.40;99.90;;;;;;4656828;30;20260;-79
2023/02/21 07:01:47;;;;;;;36.15;17.85;;;10.40;99.90;;;;;;4656160;30;20475;-77
2023/02/21 07:04:12;;;;;;;41.85;18.88;;;10.40;99.90;;;;;;4657261;30;20288;-78
2023/02/21 07:06:38;;;;;;;35.17;17.98;;;10.40;99.90;;;;;;4656815;30;20204;-80
2023/02/21 07:09:04;;;;;;;36.40;17.58;;;10.40;99.90;;;;;;4655761;30;20604;-75
2023/02/21 07:11:32;;;;;;;35.00;18.33;;;10.40;99.90;;;;;;4659152;30;20608;-75
2023/02/21 07:13:58;;;;;;;38.55;18.42;;;10.40;99.90;;;;;;4642648;30;20227;-80
2023/02/21 07:16:25;;;;;;;35.13;18.92;;;10.30;99.90;;;;;;4655767;30;20248;-78
2023/02/21 07:18:51;;;;;;;39.60;19.63;;;10.40;99.90;;;;;;4652118;30;20610;-75
2023/02/21 07:21:18;;;;;;;38.15;18.60;;;10.40;99.90;;;;;;4653777;30;20328;-75
2023/02/21 07:23:46;;;;;;;36.30;18.17;;;10.40;99.90;;;;;;4653250;30;20258;-76
2023/02/21 07:26:12;;;;;;;36.13;18.55;;;10.40;99.90;;;;;;4649575;30;20304;-77
2023/02/21 07:28:37;;;;;;;37.13;18.48;;;10.40;99.90;;;;;;4651235;30;20312;-77
2023/02/21 07:31:03;;;;;;;34.88;18.70;;;10.40;99.90;;;;;;4652287;30;20639;-79
2023/02/21 07:33:29;;;;;;;42.08;19.45;;;10.40;99.90;;;;;;4651229;30;20545;-78
2023/02/21 07:35:55;;;;;;;37.92;18.98;;;10.40;99.90;;;;;;4651407;30;20212;-75
2023/02/21 07:38:22;;;;;;;37.00;19.45;;;10.40;99.90;;;;;;4636582;30;20320;-78
2023/02/21 07:40:49;;;;;;;38.13;19.98;;;10.40;99.90;;;;;;4652613;30;20404;-77
2023/02/21 07:43:15;;;;;;;41.83;20.83;;;10.40;99.90;;;;;;4651744;30;20201;-80
2023/02/21 07:45:40;;;;;;;44.03;19.88;;;10.40;99.90;;;;;;4638271;30;20270;-76
2023/02/21 07:48:06;;;;;;;36.78;19.80;;;10.40;99.90;;;;;;4652007;30;20553;-76
2023/02/21 07:50:32;;;;;;;39.13;19.75;;;10.40;99.90;;;;;;4648351;30;20210;-77
2023/02/21 07:52:59;;;;;;;43.45;20.30;;;10.40;99.90;;;;;;4649607;30;20198;-81
2023/02/21 07:55:25;;;;;;;40.65;20.77;;;10.40;99.90;;;;;;4637876;30;20647;-78
2023/02/21 07:57:51;;;;;;;40.70;20.02;;;10.40;99.90;;;;;;4629246;30;20741;-77
2023/02/21 08:00:17;;;;;;;42.13;22.00;;;10.40;99.90;;;;;;4650706;30;20315;-80
2023/02/21 08:02:49;;;;;;;39.65;20.20;;;10.40;99.90;;;;;;4653829;30;20199;-80
2023/02/21 08:05:17;;;;;;;39.83;21.00;;;10.40;99.90;;;;;;4631900;30;20192;-77
2023/02/21 08:07:43;;;;;;;46.88;20.92;;;10.40;99.90;;;;;;4655218;30;20224;-78
2023/02/21 08:10:09;;;;;;;37.55;19.95;;;10.40;99.90;;;;;;4641747;30;20864;-79
2023/02/21 08:12:35;;;;;;;43.03;21.23;;;10.40;99.90;;;;;;4636390;30;20286;-78
2023/02/21 08:15:01;;;;;;;58.58;27.83;;;10.40;99.90;;;;;;4655052;30;20727;-75
2023/02/21 08:17:26;;;;;;;43.83;21.92;;;10.50;99.90;;;;;;4655320;30;20721;-78
2023/02/21 08:19:52;;;;;;;48.22;21.33;;;10.40;99.90;;;;;;4656771;30;20212;-79
2023/02/21 08:22:18;;;;;;;41.47;19.95;;;10.50;99.90;;;;;;4655243;30;20696;-78
2023/02/21 08:24:45;;;;;;;44.15;20.95;;;10.50;99.90;;;;;;4639160;30;20210;-74
2023/02/21 08:27:11;;;;;;;40.28;21.10;;;10.50;99.90;;;;;;4639158;30;20275;-76
2023/02/21 08:29:36;;;;;;;38.63;21.25;;;10.50;99.90;;;;;;4652892;30;20805;-80
2023/02/21 08:32:02;;;;;;;40.58;22.13;;;10.50;99.90;;;;;;4654636;30;20322;-74
2023/02/21 08:34:28;;;;;;;42.13;21.02;;;10.50;99.90;;;;;;4652629;30;20193;-75
2023/02/21 08:36:54;;;;;;;45.30;20.95;;;10.50;99.90;;;;;;4653078;30;20366;-76
2023/02/21 08:39:20;;;;;;;43.50;20.13;;;10.50;99.90;;;;;;4654800;30;20205;-76
2023/02/21 08:41:51;;;;;;;37.58;20.80;;;10.60;99.90;;;;;;4653184;30;20203;-81
2023/02/21 08:44:20;;;;;;;42.78;21.90;;;10.60;99.90;;;;;;4652772;30;20222;-77
2023/02/21 08:46:47;;;;;;;41.65;20.85;;;10.60;99.90;;;;;;4653732;30;20197;-76
2023/02/21 08:49:13;;;;;;;38.97;21.75;;;10.60;99.90;;;;;;4654323;30;20237;-76
2023/02/21 08:51:39;;;;;;;41.88;20.63;;;10.60;99.90;;;;;;4653952;30;20224;-78
2023/02/21 08:54:06;;;;;;;41.85;21.83;;;10.70;99.90;;;;;;4653301;30;20257;-78
2023/02/21 08:56:32;;;;;;;41.65;21.30;;;10.70;99.90;;;;;;4651345;30;21006;-79
2023/02/21 08:58:59;;;;;;;39.30;20.90;;;10.70;99.90;;;;;;4654554;30;20213;-76
2023/02/21 09:01:30;;;;;;;38.95;21.50;;;10.70;99.90;;;;;;4653269;30;20201;-78
2023/02/21 09:03:56;;;;;;;43.08;21.33;;;10.70;99.90;;;;;;4652116;30;20189;-80
2023/02/21 09:06:22;;;;;;;39.97;22.00;;;10.70;99.90;;;;;;4632346;30;20197;-76
2023/02/21 09:08:48;;;;;;;41.95;21.05;;;10.70;99.90;;;;;;4654497;30;20338;-76
2023/02/21 09:11:14;;;;;;;42.60;21.60;;;10.70;99.90;;;;;;4639744;30;20623;-75
2023/02/21 09:13:40;;;;;;;37.63;20.63;;;10.70;99.90;;;;;;4653624;30;20854;-80
2023/02/21 09:16:06;;;;;;;41.55;21.88;;;10.80;99.90;;;;;;4653813;30;20210;-76
2023/02/21 09:18:32;;;;;;;42.33;22.38;;;10.80;99.90;;;;;;4640003;30;20241;-76
2023/02/21 09:20:58;;;;;;;39.55;22.00;;;10.90;99.90;;;;;;4653274;30;20231;-79
2023/02/21 09:23:25;;;;;;;41.65;22.65;;;11.00;99.90;;;;;;4654318;30;20302;-76
2023/02/21 09:25:51;;;;;;;40.35;22.42;;;11.20;99.90;;;;;;4652931;30;20280;-80
2023/02/21 09:28:18;;;;;;;36.50;20.73;;;11.20;99.90;;;;;;4652941;30;20632;-78
2023/02/21 09:30:44;;;;;;;39.42;21.02;;;11.30;99.90;;;;;;4653556;30;20326;-76
2023/02/21 09:33:10;;;;;;;37.22;21.02;;;11.40;99.90;;;;;;4653808;30;20232;-78
2023/02/21 09:35:36;;;;;;;37.30;21.55;;;11.40;99.90;;;;;;4651918;30;20264;-75
2023/02/21 09:38:03;;;;;;;41.85;21.90;;;11.40;99.90;;;;;;4630740;30;20241;-79
2023/02/21 09:40:59;;;;;;;41.78;21.33;;;11.40;99.90;;;;;;4653580;30;20251;-75
2023/02/21 09:43:42;;;;;;;40.53;21.70;;;11.40;99.90;;;;;;4653533;30;20292;-78
2023/02/21 09:46:17;;;;;;;39.05;21.65;;;11.50;99.90;;;;;;4648157;30;20200;-76
2023/02/21 09:48:43;;;;;;;41.95;21.40;;;11.40;99.90;;;;;;4653043;30;20307;-78
2023/02/21 09:51:11;;;;;;;38.17;21.23;;;11.40;99.90;;;;;;4653328;30;20205;-77
2023/02/21 09:53:45;;;;;;;37.45;20.23;;;11.40;99.90;;;;;;4652159;30;20196;-76
2023/02/21 09:56:35;;;;;;;36.80;20.67;;;11.40;99.90;;;;;;4653912;30;20211;-78
2023/02/21 09:59:01;;;;;;;37.28;20.48;;;11.40;99.90;;;;;;4653467;30;20210;-79
2023/02/21 10:01:57;;;;;;;36.22;19.45;;;11.50;99.90;;;;;;4653089;30;20206;-78
2023/02/21 10:04:35;;;;;;;39.33;20.60;;;11.40;99.90;;;;;;4651572;30;20303;-80
2023/02/21 10:07:06;;;;;;;35.35;20.33;;;11.40;99.90;;;;;;4651752;30;20216;-82
2023/02/21 10:10:17;;;;;;;38.70;20.35;;;11.40;99.90;;;;;;4632192;30;20229;-77
2023/02/21 10:12:54;;;;;;;42.28;20.27;;;11.40;99.90;;;;;;4637297;30;20528;-80
2023/02/21 10:15:44;;;;;;;44.33;21.17;;;11.40;99.90;;;;;;4655869;30;20193;-75
2023/02/21 10:18:19;;;;;;;41.15;21.05;;;11.40;99.90;;;;;;4629483;30;20277;-77
2023/02/21 10:21:03;;;;;;;38.80;20.73;;;11.40;99.90;;;;;;4653743;30;20785;-78
2023/02/21 10:23:40;;;;;;;41.53;21.88;;;11.40;99.90;;;;;;4651750;30;20200;-79
2023/02/21 10:26:41;;;;;;;39.22;20.40;;;11.40;99.90;;;;;;4651956;30;20196;-75
2023/02/21 10:29:21;;;;;;;35.35;19.70;;;11.40;99.90;;;;;;4632636;30;20312;-75
2023/02/21 10:31:52;;;;;;;37.05;19.90;;;11.40;99.90;;;;;;4653233;30;20328;-78
2023/02/21 10:34:27;;;;;;;35.97;20.70;;;11.40;99.90;;;;;;4641324;30;20193;-80
2023/02/21 10:37:03;;;;;;;39.03;21.35;;;11.40;99.90;;;;;;4654118;30;20246;-77
2023/02/21 10:39:52;;;;;;;32.30;20.17;;;11.40;99.90;;;;;;4652641;30;20193;-78
2023/02/21 10:42:42;;;;;;;31.85;20.02;;;11.40;99.90;;;;;;4656055;30;20809;-77
2023/02/21 10:45:10;;;;;;;37.30;20.92;;;11.40;99.90;;;;;;4658179;30;20640;-75
2023/02/21 10:47:59;;;;;;;36.65;20.30;;;11.40;99.90;;;;;;4641800;30;20238;-75
2023/02/21 10:50:47;;;;;;;41.97;21.10;;;11.40;99.90;;;;;;4653338;30;20189;-74
2023/02/21 10:53:26;;;;;;;38.72;20.67;;;11.50;99.90;;;;;;4651976;30;20200;-80
2023/02/21 10:56:23;;;;;;;32.78;19.98;;;11.50;99.90;;;;;;4651602;30;20723;-74
2023/02/21 10:58:59;;;;;;;40.67;20.67;;;11.50;99.90;;;;;;4650125;30;20671;-77
2023/02/21 11:01:29;;;;;;;36.92;21.67;;;11.50;99.90;;;;;;4643734;30;20202;-75
2023/02/21 11:04:01;;;;;;;38.15;21.20;;;11.60;99.90;;;;;;4653261;30;20205;-78
2023/02/21 11:06:29;;;;;;;38.38;20.25;;;11.50;99.90;;;;;;4651418;30;20223;-75
2023/02/21 11:08:56;;;;;;;39.15;20.80;;;11.60;99.90;;;;;;4652085;30;20202;-75
2023/02/21 11:11:42;;;;;;;37.15;20.58;;;11.50;99.90;;;;;;4652917;30;20188;-74
2023/02/21 11:14:16;;;;;;;40.75;21.15;;;11.60;99.90;;;;;;4651508;30;20252;-77
2023/02/21 11:16:42;;;;;;;32.53;20.17;;;11.60;99.90;;;;;;4651983;30;20224;-77
2023/02/21 11:19:13;;;;;;;38.60;20.90;;;11.60;99.90;;;;;;4652700;30;20197;-78
2023/02/21 11:21:43;;;;;;;40.88;20.33;;;11.60;99.90;;;;;;4638153;30;20671;-77
2023/02/21 11:24:11;;;;;;;34.03;19.20;;;11.60;99.90;;;;;;4628504;30;20190;-75
2023/02/21 11:26:47;;;;;;;38.75;20.45;;;11.60;99.90;;;;;;4629390;30;20198;-74
2023/02/21 11:29:17;;;;;;;35.80;19.70;;;11.60;99.90;;;;;;4652546;30;20231;-77
2023/02/21 11:31:43;;;;;;;32.53;19.90;;;11.60;99.90;;;;;;4651666;30;20354;-77
2023/02/21 11:34:12;;;;;;;37.30;20.48;;;11.70;99.90;;;;;;4650088;30;20205;-76
2023/02/21 11:36:41;;;;;;;34.17;20.15;;;11.70;99.90;;;;;;4653572;30;20239;-74
2023/02/21 11:39:17;;;;;;;34.10;20.02;;;11.70;99.90;;;;;;4647700;30;20597;-80
2023/02/21 11:41:55;;;;;;;41.80;21.13;;;11.70;99.90;;;;;;4656795;30;20189;-75
2023/02/21 11:44:38;;;;;;;33.95;20.17;;;11.70;99.90;;;;;;4660521;30;20352;-78
2023/02/21 11:47:24;;;;;;;34.65;20.08;;;11.70;99.90;;;;;;4656520;30;20209;-76
2023/02/21 11:50:00;;;;;;;36.38;19.15;;;11.70;99.90;;;;;;4656094;30;20249;-78
2023/02/21 11:52:55;;;;;;;37.85;19.17;;;11.70;99.90;;;;;;4658662;30;20201;-76
2023/02/21 11:55:23;;;;;;;33.20;19.40;;;11.70;99.90;;;;;;4655478;30;20193;-77
2023/02/21 11:58:13;;;;;;;36.03;18.92;;;11.70;99.90;;;;;;4656049;30;20247;-76
2023/02/21 12:01:04;;;;;;;34.60;19.55;;;11.80;99.90;;;;;;4634135;30;20232;-75
2023/02/21 12:03:40;;;;;;;34.55;18.75;;;11.80;99.90;;;;;;4658439;30;20194;-76
2023/02/21 12:06:29;;;;;;;31.45;18.02;;;11.80;99.90;;;;;;4659869;30;20675;-79
2023/02/21 12:09:01;;;;;;;32.55;18.48;;;11.70;99.90;;;;;;4658821;30;20260;-79
2023/02/21 12:11:56;;;;;;;30.90;17.90;;;11.80;99.90;;;;;;4658476;30;20252;-77
2023/02/21 12:14:56;;;;;;;29.80;17.42;;;11.80;99.90;;;;;;4644191;30;20567;-75
2023/02/21 12:17:58;;;;;;;34.55;17.95;;;11.70;99.90;;;;;;4644672;30;20287;-76
2023/02/21 12:21:00;;;;;;;30.27;17.85;;;11.80;99.90;;;;;;4657490;30;20671;-79
2023/02/21 12:23:29;;;;;;;33.80;18.20;;;11.80;99.90;;;;;;4658148;30;20370;-77
2023/02/21 12:26:23;;;;;;;32.28;17.45;;;11.80;99.90;;;;;;4638151;30;20220;-79
2023/02/21 12:29:03;;;;;;;30.95;17.55;;;11.80;99.90;;;;;;4661995;30;20341;-74
2023/02/21 12:31:47;;;;;;;33.83;17.65;;;11.80;99.90;;;;;;4661236;30;20281;-79
2023/02/21 12:34:39;;;;;;;29.65;16.73;;;11.80;99.90;;;;;;4662191;30;20189;-79
2023/02/21 12:37:21;;;;;;;30.55;17.33;;;11.80;99.90;;;;;;4657059;30;20252;-80
2023/02/21 12:39:50;;;;;;;28.63;16.40;;;11.80;99.90;;;;;;4653759;30;20224;-78
2023/02/21 12:42:39;;;;;;;33.10;17.58;;;11.90;99.90;;;;;;4654184;30;21141;-81
2023/02/21 12:45:36;;;;;;;30.77;17.30;;;11.80;99.90;;;;;;4653453;30;20275;-76
2023/02/21 12:48:15;;;;;;;27.63;16.95;;;11.80;99.90;;;;;;4621000;30;20201;-76
2023/02/21 12:50:47;;;;;;;29.38;17.23;;;11.90;99.90;;;;;;4645638;30;20871;-77
2023/02/21 12:53:16;;;;;;;34.33;17.70;;;11.90;99.90;;;;;;4654022;30;20822;-77
2023/02/21 12:55:50;;;;;;;28.45;17.33;;;11.90;99.90;;;;;;4629433;30;20682;-77
2023/02/21 12:58:24;;;;;;;30.48;17.60;;;11.90;99.90;;;;;;4630938;30;20290;-74
2023/02/21 13:01:25;;;;;;;28.73;16.58;;;11.90;99.90;;;;;;4639084;30;20195;-76
2023/02/21 13:04:12;;;;;;;28.35;16.05;;;11.90;99.90;;;;;;4653928;30;20193;-78
2023/02/21 13:06:47;;;;;;;28.45;15.80;;;11.90;99.90;;;;;;4654460;30;20192;-77
2023/02/21 13:09:42;;;;;;;25.17;16.58;;;11.90;99.90;;;;;;4657513;30;21216;-78
2023/02/21 13:12:19;;;;;;;30.73;16.65;;;11.90;99.90;;;;;;4648690;30;20213;-82
2023/02/21 13:14:56;;;;;;;30.27;16.80;;;11.90;99.90;;;;;;4654426;30;20202;-82
2023/02/21 13:17:22;;;;;;;27.80;17.42;;;11.90;99.90;;;;;;4653816;30;20710;-77
2023/02/21 13:20:16;;;;;;;29.77;17.33;;;11.90;99.90;;;;;;4653427;30;20199;-79
2023/02/21 13:26:26;;;;;;;28.05;15.85;;;11.90;99.90;;;;;;4652923;30;20723;-77
2023/02/21 13:28:53;;;;;;;28.60;15.75;;;11.90;99.90;;;;;;4640100;30;20249;-79
2023/02/21 13:31:38;;;;;;;33.55;16.40;;;12.00;99.90;;;;;;4653103;30;20992;-76
2023/02/21 13:34:13;;;;;;;25.30;15.98;;;12.00;99.90;;;;;;4654175;30;20340;-79
2023/02/21 13:36:41;;;;;;;29.60;15.43;;;12.00;99.90;;;;;;4653497;30;20231;-76
2023/02/21 13:39:30;;;;;;;25.98;15.70;;;12.00;99.90;;;;;;4652885;30;20202;-78
2023/02/21 13:42:08;;;;;;;26.70;15.65;;;12.00;99.90;;;;;;4639002;30;20201;-75
2023/02/21 13:45:03;;;;;;;20.80;14.98;;;12.00;99.90;;;;;;4653332;30;20294;-78
2023/02/21 13:47:51;;;;;;;23.80;14.48;;;12.00;99.90;;;;;;4633692;30;20236;-80
2023/02/21 13:50:33;;;;;;;27.98;14.90;;;12.00;99.90;;;;;;4651638;30;20220;-76
2023/02/21 13:53:07;;;;;;;26.33;14.50;;;12.00;99.90;;;;;;4652860;30;20730;-78
2023/02/21 13:55:35;;;;;;;27.33;14.55;;;12.00;99.90;;;;;;4652555;30;20205;-76
2023/02/21 13:58:01;;;;;;;28.33;15.77;;;12.00;99.90;;;;;;4652476;30;20343;-78
2023/02/21 14:00:26;;;;;;;25.95;16.73;;;12.10;99.90;;;;;;4654080;30;20462;-76
2023/02/21 14:03:00;;;;;;;26.40;17.95;;;12.00;99.90;;;;;;4653597;30;20190;-79
2023/02/21 14:05:49;;;;;;;25.42;17.92;;;12.00;99.90;;;;;;4652484;30;20185;-79
2023/02/21 14:08:25;;;;;;;25.67;17.67;;;12.00;99.90;;;;;;4639557;30;20606;-77
2023/02/21 14:10:57;;;;;;;28.00;17.80;;;12.00;99.90;;;;;;4653088;30;20185;-78
2023/02/21 14:13:46;;;;;;;24.83;17.55;;;12.00;99.90;;;;;;4639430;30;20197;-78
2023/02/21 14:16:12;;;;;;;31.02;18.60;;;12.00;99.90;;;;;;4654741;30;20193;-76
2023/02/21 14:18:38;;;;;;;30.45;18.70;;;11.90;99.90;;;;;;4652331;30;20224;-82
2023/02/21 14:21:08;;;;;;;31.40;18.85;;;11.90;99.90;;;;;;4652415;30;20194;-76
2023/02/21 14:23:44;;;;;;;35.20;20.00;;;11.90;99.90;;;;;;4652965;30;20205;-76
2023/02/21 14:26:41;;;;;;;32.60;19.63;;;11.90;99.90;;;;;;4645630;30;20197;-81
2023/02/21 14:29:07;;;;;;;38.00;21.00;;;11.90;99.90;;;;;;4651818;30;20272;-79
2023/02/21 14:31:45;;;;;;;40.10;22.15;;;11.80;99.90;;;;;;4652886;30;20289;-76
2023/02/21 14:34:12;;;;;;;38.58;21.88;;;11.90;99.90;;;;;;4654174;30;20193;-79
2023/02/21 14:36:39;;;;;;;32.90;21.70;;;11.80;99.90;;;;;;4650697;30;21763;-80
2023/02/21 14:39:06;;;;;;;38.47;21.15;;;11.80;99.90;;;;;;4652043;30;20213;-78
2023/02/21 14:42:03;;;;;;;36.28;20.75;;;11.80;99.90;;;;;;4652261;30;20220;-76
2023/02/21 14:45:13;;;;;;;37.00;21.30;;;11.80;99.90;;;;;;4652807;30;20192;-77
2023/02/21 14:48:17;;;;;;;39.03;21.63;;;11.80;99.90;;;;;;4651884;30;20194;-79
2023/02/21 14:51:04;;;;;;;37.70;21.70;;;11.70;99.90;;;;;;4627819;30;20268;-76
2023/02/21 14:53:38;;;;;;;31.88;21.73;;;11.70;99.90;;;;;;4652269;30;20193;-76
2023/02/21 14:56:22;;;;;;;31.13;21.52;;;11.70;99.90;;;;;;4652237;30;20208;-80
2023/02/21 14:58:50;;;;;;;39.90;21.55;;;11.70;99.90;;;;;;4651879;30;20263;-78
2023/02/21 15:01:54;;;;;;;34.85;21.92;;;11.70;99.90;;;;;;4651068;30;20817;-77
2023/02/21 15:04:28;;;;;;;34.10;21.42;;;11.70;99.90;;;;;;4651574;30;20197;-77
2023/02/21 15:07:27;;;;;;;32.83;20.95;;;11.60;99.90;;;;;;4655355;30;20675;-77
2023/02/21 15:10:06;;;;;;;37.47;22.10;;;11.60;99.90;;;;;;4639322;30;20205;-75
2023/02/21 15:12:38;;;;;;;33.88;21.58;;;11.60;99.90;;;;;;4628512;30;20204;-76
2023/02/21 15:15:05;;;;;;;34.30;22.40;;;11.60;99.90;;;;;;4653806;30;20190;-77
2023/02/21 15:17:31;;;;;;;33.47;21.92;;;11.60;99.90;;;;;;4656564;30;20371;-78